Time,TemperatureF,DewpointF,PressureIn,WindDirection,WindDirectionDegrees,WindSpeedMPH,WindSpeedGustMPH,Humidity,HourlyPrecipIn,Conditions,Clouds,dailyrainin,SoftwareType,DateUTC
2013-09-11 09:17:00,70.2,70.2,30.23,ESE,122,0.0,0.0,100,-99.99,,,0.00,VWS V14.01,2013-09-11 13:17:00,
2013-09-11 09:22:00,70.7,70.7,30.23,ESE,122,0.0,0.0,100,-99.99,,,0.00,VWS V14.01,2013-09-11 13:22:00,
2013-09-11 09:27:00,71.0,71.0,30.23,ESE,122,0.0,0.0,100,-99.99,,,0.00,VWS V14.01,2013-09-11 13:27:00,
2013-09-11 09:32:00,71.5,71.4,30.23,ESE,122,0.0,0.0,100,-99.99,,,0.00,VWS V14.01,2013-09-11 13:32:00,
2013-09-11 09:39:00,71.7,71.2,30.23,ESE,122,0.0,0.0,98,-99.99,,,0.00,VWS V14.01,2013-09-11 13:39:00,
2013-09-11 09:44:00,72.1,71.2,30.23,ESE,122,0.0,0.0,97,-99.99,,,0.00,VWS V14.01,2013-09-11 13:44:00,
2013-09-11 09:49:00,72.7,71.6,30.23,ESE,122,0.0,0.0,96,-99.99,,,0.00,VWS V14.01,2013-09-11 13:49:00,
2013-09-11 09:54:00,73.3,71.5,30.23,ESE,122,0.0,0.0,94,-99.99,,,0.00,VWS V14.01,2013-09-11 13:54:00,
2013-09-11 09:59:00,73.8,71.6,30.23,ESE,122,0.0,0.0,93,-99.99,,,0.00,VWS V14.01,2013-09-11 13:59:00,
2013-09-11 10:00:00,73.8,71.5,30.23,ESE,122,0.0,0.0,93,-99.99,,,0.00,VWS V14.01,2013-09-11 14:00:00,
2013-09-11 10:04:00,74.2,71.6,30.23,ESE,122,0.0,0.0,92,-99.99,,,0.00,VWS V14.01,2013-09-11 14:04:00,
2013-09-11 10:09:00,74.7,71.7,30.23,ESE,122,0.0,0.0,90,-99.99,,,0.00,VWS V14.01,2013-09-11 14:09:00,
2013-09-11 10:14:00,75.2,71.7,30.23,ESE,122,0.0,0.0,89,-99.99,,,0.00,VWS V14.01,2013-09-11 14:14:00,
2013-09-11 10:19:00,75.7,71.9,30.23,ESE,122,0.0,0.0,88,-99.99,,,0.00,VWS V14.01,2013-09-11 14:19:00,
2013-09-11 10:24:00,75.9,71.6,30.23,ESE,122,0.0,0.0,86,-99.99,,,0.00,VWS V14.01,2013-09-11 14:24:00,
2013-09-11 10:29:00,76.3,71.8,30.23,ESE,122,0.0,0.0,86,-99.99,,,0.00,VWS V14.01,2013-09-11 14:29:00,
2013-09-11 10:30:00,76.4,71.9,30.23,ESE,122,0.0,0.0,86,-99.99,,,0.00,VWS V14.01,2013-09-11 14:30:00,
2013-09-11 10:34:00,76.9,72.0,30.23,ESE,122,0.0,0.0,85,-99.99,,,0.00,VWS V14.01,2013-09-11 14:34:00,
2013-09-11 10:39:00,77.2,71.7,30.23,ESE,122,0.0,0.0,83,-99.99,,,0.00,VWS V14.01,2013-09-11 14:39:00,
2013-09-11 10:44:00,77.5,71.9,30.23,ESE,122,0.0,0.0,83,-99.99,,,0.00,VWS V14.01,2013-09-11 14:44:00,
2013-09-11 10:49:00,78.0,71.8,30.23,ESE,122,0.0,0.0,81,-99.99,,,0.00,VWS V14.01,2013-09-11 14:49:00,
2013-09-11 10:54:00,78.5,71.7,30.23,ESE,122,0.0,0.0,80,-99.99,,,0.00,VWS V14.01,2013-09-11 14:54:00,
2013-09-11 10:59:00,79.0,71.7,30.23,SE,129,0.0,3.5,78,-99.99,,,0.00,VWS V14.01,2013-09-11 14:59:00,
2013-09-11 11:00:00,79.0,71.6,30.23,SE,129,0.0,3.5,78,-99.99,,,0.00,VWS V14.01,2013-09-11 15:00:00,
2013-09-11 11:04:00,79.4,71.8,30.23,SE,129,0.0,0.0,78,-99.99,,,0.00,VWS V14.01,2013-09-11 15:04:00,
2013-09-11 11:09:00,79.8,71.7,30.22,SE,129,0.0,0.0,76,-99.99,,,0.00,VWS V14.01,2013-09-11 15:09:00,
2013-09-11 11:14:00,80.1,71.7,30.22,SE,129,0.0,0.0,76,-99.99,,,0.00,VWS V14.01,2013-09-11 15:14:00,
2013-09-11 11:19:00,80.4,71.6,30.22,SE,129,0.0,0.0,75,-99.99,,,0.00,VWS V14.01,2013-09-11 15:19:00,
2013-09-11 11:24:00,80.5,71.7,30.22,SE,129,0.0,0.0,74,-99.99,,,0.00,VWS V14.01,2013-09-11 15:24:00,
2013-09-11 11:29:00,80.7,71.8,30.22,SE,129,0.0,0.0,74,-99.99,,,0.00,VWS V14.01,2013-09-11 15:29:00,
2013-09-11 11:30:00,80.6,71.8,30.22,SE,129,0.0,0.0,74,-99.99,,,0.00,VWS V14.01,2013-09-11 15:30:00,
2013-09-11 11:34:00,80.9,71.8,30.22,SE,129,0.0,0.0,74,-99.99,,,0.00,VWS V14.01,2013-09-11 15:34:00,
2013-09-11 11:39:00,81.3,71.7,30.22,SE,129,0.0,0.0,73,-99.99,,,0.00,VWS V14.01,2013-09-11 15:39:00,
2013-09-11 11:44:00,81.7,72.0,30.21,SE,129,0.0,0.0,72,-99.99,,,0.00,VWS V14.01,2013-09-11 15:44:00,
2013-09-11 11:49:00,82.0,72.0,30.21,West,274,0.0,4.2,72,-99.99,,,0.00,VWS V14.01,2013-09-11 15:49:00,
2013-09-11 11:54:00,82.2,71.8,30.21,West,274,0.0,4.2,71,-99.99,,,0.00,VWS V14.01,2013-09-11 15:54:00,
2013-09-11 11:59:00,82.2,71.8,30.21,West,274,0.0,4.2,71,-99.99,,,0.00,VWS V14.01,2013-09-11 15:59:00,
2013-09-11 12:00:00,82.2,71.6,30.21,West,274,0.0,4.2,70,-99.99,,,0.00,VWS V14.01,2013-09-11 16:00:00,
2013-09-11 12:04:00,82.2,71.7,30.21,West,274,0.0,0.0,71,-99.99,,,0.00,VWS V14.01,2013-09-11 16:04:00,
2013-09-11 12:09:00,82.5,71.5,30.21,West,274,0.0,0.0,70,-99.99,,,0.00,VWS V14.01,2013-09-11 16:09:00,
2013-09-11 12:14:00,82.6,71.8,30.21,NW,314,0.0,5.2,70,-99.99,,,0.00,VWS V14.01,2013-09-11 16:14:00,
2013-09-11 12:19:00,82.9,72.0,30.21,NW,314,0.0,5.2,70,-99.99,,,0.00,VWS V14.01,2013-09-11 16:19:00,
2013-09-11 12:24:00,83.2,72.1,30.21,NW,314,0.0,5.2,69,-99.99,,,0.00,VWS V14.01,2013-09-11 16:24:00,
2013-09-11 12:29:00,83.2,72.0,30.21,West,259,4.3,7.0,69,-99.99,,,0.00,VWS V14.01,2013-09-11 16:29:00,
2013-09-11 12:30:00,83.3,72.0,30.21,West,259,0.0,7.0,69,-99.99,,,0.00,VWS V14.01,2013-09-11 16:30:00,
2013-09-11 12:34:00,83.4,72.1,30.20,West,259,0.0,0.0,69,-99.99,,,0.00,VWS V14.01,2013-09-11 16:34:00,
2013-09-11 12:38:00,83.5,72.2,30.20,West,259,0.0,0.0,69,-99.99,,,0.00,VWS V14.01,2013-09-11 16:38:00,
2013-09-11 12:43:00,83.4,72.0,30.20,West,259,0.0,0.0,69,-99.99,,,0.00,VWS V14.01,2013-09-11 16:43:00,
2013-09-11 12:48:00,83.4,71.9,30.20,West,259,0.0,0.0,68,-99.99,,,0.00,VWS V14.01,2013-09-11 16:48:00,
2013-09-11 12:53:00,83.5,71.6,30.19,West,259,0.0,0.0,68,-99.99,,,0.00,VWS V14.01,2013-09-11 16:53:00,
2013-09-11 12:58:00,83.6,71.8,30.18,West,259,0.0,0.0,68,-99.99,,,0.00,VWS V14.01,2013-09-11 16:58:00,
2013-09-11 13:00:00,83.7,71.7,30.18,West,259,0.0,0.0,67,-99.99,,,0.00,VWS V14.01,2013-09-11 17:00:00,
2013-09-11 13:03:00,83.7,71.7,30.18,West,259,0.0,1.5,67,-99.99,,,0.00,VWS V14.01,2013-09-11 17:03:00,
2013-09-11 13:08:00,83.8,71.8,30.18,West,259,0.0,1.5,67,-99.99,,,0.00,VWS V14.01,2013-09-11 17:08:00,
2013-09-11 13:13:00,84.1,73.0,30.17,West,259,0.0,1.5,69,-99.99,,,0.00,VWS V14.01,2013-09-11 17:13:00,
2013-09-11 13:18:00,84.3,72.9,30.17,West,259,0.0,1.5,69,-99.99,,,0.00,VWS V14.01,2013-09-11 17:18:00,
2013-09-11 13:23:00,84.5,72.0,30.17,West,259,0.0,1.5,66,-99.99,,,0.00,VWS V14.01,2013-09-11 17:23:00,
2013-09-11 13:28:00,84.7,72.2,30.16,West,259,0.0,1.5,66,-99.99,,,0.00,VWS V14.01,2013-09-11 17:28:00,
2013-09-11 13:30:00,84.5,72.2,30.16,SW,235,0.0,8.4,67,-99.99,,,0.00,VWS V14.01,2013-09-11 17:30:00,
2013-09-11 13:33:00,84.0,72.2,30.16,WNW,290,0.0,6.4,68,-99.99,,,0.00,VWS V14.01,2013-09-11 17:33:00,
2013-09-11 13:38:00,83.5,72.4,30.15,NW,319,0.0,8.9,69,-99.99,,,0.00,VWS V14.01,2013-09-11 17:38:00,
2013-09-11 13:43:00,82.8,72.1,30.15,NW,319,0.0,8.9,70,-99.99,,,0.00,VWS V14.01,2013-09-11 17:43:00,
2013-09-11 13:48:00,82.2,72.1,30.15,NW,319,0.0,8.9,72,-99.99,,,0.00,VWS V14.01,2013-09-11 17:48:00,
2013-09-11 13:53:00,81.9,72.0,30.15,NW,319,0.0,8.9,72,-99.99,,,0.00,VWS V14.01,2013-09-11 17:53:00,
2013-09-11 13:58:00,82.0,72.0,30.14,NW,312,0.0,8.9,72,-99.99,,,0.00,VWS V14.01,2013-09-11 17:58:00,
2013-09-11 14:00:00,82.1,71.3,30.14,NW,312,3.4,8.9,70,-99.99,,,0.00,VWS V14.01,2013-09-11 18:00:00,
2013-09-11 14:03:00,82.7,71.1,30.14,WSW,240,0.0,10.8,68,-99.99,,,0.00,VWS V14.01,2013-09-11 18:03:00,
2013-09-11 14:08:00,83.4,70.9,30.15,NNW,330,4.5,10.8,66,-99.99,,,0.00,VWS V14.01,2013-09-11 18:08:00,
2013-09-11 14:13:00,83.7,71.1,30.14,SW,228,0.0,11.2,66,-99.99,,,0.00,VWS V14.01,2013-09-11 18:13:00,
2013-09-11 14:18:00,84.1,70.6,30.13,WNW,285,0.0,11.2,64,-99.99,,,0.00,VWS V14.01,2013-09-11 18:18:00,
2013-09-11 14:23:00,84.6,70.7,30.13,West,280,0.0,11.2,63,-99.99,,,0.00,VWS V14.01,2013-09-11 18:23:00,
2013-09-11 14:28:00,84.9,70.6,30.13,West,281,4.8,11.2,62,-99.99,,,0.00,VWS V14.01,2013-09-11 18:28:00,
2013-09-11 14:30:00,85.1,71.3,30.13,WSW,245,0.0,11.2,64,-99.99,,,0.00,VWS V14.01,2013-09-11 18:30:00,
2013-09-11 14:33:00,85.1,70.5,30.13,NNW,330,0.0,5.3,62,-99.99,,,0.00,VWS V14.01,2013-09-11 18:33:00,
2013-09-11 14:38:00,85.4,70.6,30.13,NW,309,0.0,6.0,61,-99.99,,,0.00,VWS V14.01,2013-09-11 18:38:00,
2013-09-11 14:43:00,85.9,71.8,30.13,NW,315,0.0,6.0,63,-99.99,,,0.00,VWS V14.01,2013-09-11 18:43:00,
2013-09-11 14:48:00,86.1,71.6,30.13,South,169,0.0,7.0,62,-99.99,,,0.00,VWS V14.01,2013-09-11 18:48:00,
2013-09-11 14:53:00,85.8,70.6,30.12,NNW,339,0.0,7.8,60,-99.99,,,0.00,VWS V14.01,2013-09-11 18:53:00,
2013-09-11 14:58:00,85.6,70.7,30.11,NW,307,0.0,7.8,61,-99.99,,,0.00,VWS V14.01,2013-09-11 18:58:00,
2013-09-11 15:00:00,85.5,70.9,30.12,NNW,338,0.0,8.0,62,-99.99,,,0.00,VWS V14.01,2013-09-11 19:00:00,
2013-09-11 15:03:00,85.5,71.2,30.11,NNW,338,0.0,2.3,62,-99.99,,,0.00,VWS V14.01,2013-09-11 19:03:00,
2013-09-11 15:08:00,85.4,70.8,30.10,NNW,338,0.0,2.3,62,-99.99,,,0.00,VWS V14.01,2013-09-11 19:08:00,
2013-09-11 15:13:00,85.4,71.3,30.10,NW,322,4.2,7.6,63,-99.99,,,0.00,VWS V14.01,2013-09-11 19:13:00,
2013-09-11 15:19:00,85.7,70.9,30.10,West,264,3.3,3.3,62,-99.99,,,0.00,VWS V14.01,2013-09-11 19:19:00,
2013-09-11 15:24:00,85.7,71.1,30.10,WSW,245,0.0,3.3,62,-99.99,,,0.00,VWS V14.01,2013-09-11 19:24:00,
2013-09-11 15:29:00,86.0,71.8,30.10,NW,309,0.0,5.8,63,-99.99,,,0.00,VWS V14.01,2013-09-11 19:29:00,
2013-09-11 15:34:00,86.1,71.1,30.10,NNW,333,7.9,9.6,61,-99.99,,,0.00,VWS V14.01,2013-09-11 19:34:00,
2013-09-11 15:39:00,86.3,71.5,30.10,NW,308,6.1,9.6,61,-99.99,,,0.00,VWS V14.01,2013-09-11 19:39:00,
2013-09-11 15:44:00,86.4,70.8,30.10,WNW,298,2.5,9.6,60,-99.99,,,0.00,VWS V14.01,2013-09-11 19:44:00,
2013-09-11 15:49:00,86.5,71.6,30.11,NNW,333,4.4,10.1,61,-99.99,,,0.00,VWS V14.01,2013-09-11 19:49:00,
2013-09-11 15:54:00,86.7,71.8,30.11,West,273,0.0,10.1,61,-99.99,,,0.00,VWS V14.01,2013-09-11 19:54:00,
2013-09-11 16:00:00,86.3,71.1,30.10,NW,316,2.8,2.8,61,-99.99,,,0.00,VWS V14.01,2013-09-11 20:00:00,
2013-09-11 16:05:00,86.1,71.3,30.10,North,357,0.0,6.3,61,-99.99,,,0.00,VWS V14.01,2013-09-11 20:05:00,
2013-09-11 16:10:00,85.9,71.6,30.10,WSW,240,4.3,6.3,62,-99.99,,,0.00,VWS V14.01,2013-09-11 20:10:00,
2013-09-11 16:15:00,85.6,71.1,30.10,NE,53,0.0,6.7,62,-99.99,,,0.00,VWS V14.01,2013-09-11 20:15:00,
2013-09-11 16:20:00,84.8,68.6,30.11,West,260,7.2,19.9,58,-99.99,,,0.00,VWS V14.01,2013-09-11 20:20:00,
2013-09-11 16:25:00,82.7,66.1,30.13,West,264,4.5,19.9,57,-99.99,,,0.00,VWS V14.01,2013-09-11 20:25:00,
2013-09-11 16:30:00,80.0,66.1,30.13,SE,128,3.0,19.9,63,-99.99,,,0.00,VWS V14.01,2013-09-11 20:30:00,
2013-09-11 16:35:00,78.0,66.1,30.13,WSW,253,6.0,10.7,67,-99.99,,,0.00,VWS V14.01,2013-09-11 20:35:00,
2013-09-11 16:40:00,77.1,65.8,30.13,NW,319,4.2,11.9,68,-99.99,,,0.00,VWS V14.01,2013-09-11 20:40:00,
2013-09-11 16:45:00,76.7,65.7,30.13,NNW,338,0.0,11.9,69,-99.99,,,0.00,VWS V14.01,2013-09-11 20:45:00,
2013-09-11 16:49:00,76.3,65.5,30.13,NW,312,0.0,11.9,69,-99.99,,,0.00,VWS V14.01,2013-09-11 20:49:00,
2013-09-11 16:54:00,76.3,65.8,30.13,NW,312,0.0,11.9,70,-99.99,,,0.00,VWS V14.01,2013-09-11 20:54:00,
2013-09-11 16:59:00,76.5,66.2,30.13,NW,312,0.0,11.9,70,-99.99,,,0.00,VWS V14.01,2013-09-11 20:59:00,
2013-09-11 17:04:00,76.9,66.7,30.14,NW,312,0.0,0.0,71,-99.99,,,0.00,VWS V14.01,2013-09-11 21:04:00,
2013-09-11 17:09:00,77.1,67.1,30.13,ESE,105,0.0,3.2,71,-99.99,,,0.00,VWS V14.01,2013-09-11 21:09:00,
2013-09-11 17:14:00,77.4,67.2,30.13,ESE,105,0.0,3.2,71,-99.99,,,0.00,VWS V14.01,2013-09-11 21:14:00,
2013-09-11 17:19:00,77.7,67.7,30.13,ESE,103,0.0,5.0,71,-99.99,,,0.00,VWS V14.01,2013-09-11 21:19:00,
2013-09-11 17:24:00,78.1,68.3,30.13,SE,127,0.0,5.0,72,-99.99,,,0.00,VWS V14.01,2013-09-11 21:24:00,
2013-09-11 17:29:00,78.3,68.5,30.12,SE,127,0.0,5.0,72,-99.99,,,0.00,VWS V14.01,2013-09-11 21:29:00,
2013-09-11 17:34:00,78.6,69.0,30.11,SE,127,0.0,0.0,72,-99.99,,,0.00,VWS V14.01,2013-09-11 21:34:00,
2013-09-11 17:39:00,78.6,68.7,30.11,SE,127,0.0,0.0,72,-99.99,,,0.00,VWS V14.01,2013-09-11 21:39:00,
2013-09-11 17:44:00,78.4,68.3,30.11,SE,127,0.0,0.0,71,-99.99,,,0.00,VWS V14.01,2013-09-11 21:44:00,
2013-09-11 17:49:00,78.4,68.5,30.11,SE,127,0.0,0.0,72,-99.99,,,0.00,VWS V14.01,2013-09-11 21:49:00,
2013-09-11 17:54:00,78.4,68.4,30.10,SE,127,0.0,0.0,71,-99.99,,,0.00,VWS V14.01,2013-09-11 21:54:00,
2013-09-11 17:59:00,78.3,68.1,30.10,SE,127,0.0,2.7,71,-99.99,,,0.00,VWS V14.01,2013-09-11 21:59:00,
2013-09-11 18:04:00,78.5,68.3,30.09,ENE,75,0.0,5.8,71,-99.99,,,0.00,VWS V14.01,2013-09-11 22:04:00,
2013-09-11 18:09:00,78.5,68.3,30.09,ENE,75,0.0,5.8,71,-99.99,,,0.00,VWS V14.01,2013-09-11 22:09:00,
2013-09-11 18:14:00,78.5,68.5,30.10,SE,125,0.0,6.0,72,-99.99,,,0.00,VWS V14.01,2013-09-11 22:14:00,
2013-09-11 18:19:00,78.6,68.7,30.10,SE,125,0.0,6.0,72,-99.99,,,0.00,VWS V14.01,2013-09-11 22:19:00,
2013-09-11 18:24:00,78.4,68.6,30.10,SE,125,0.0,6.0,72,-99.99,,,0.00,VWS V14.01,2013-09-11 22:24:00,
2013-09-11 18:29:00,78.5,68.8,30.10,SE,125,0.0,6.0,72,-99.99,,,0.00,VWS V14.01,2013-09-11 22:29:00,
2013-09-11 18:34:00,78.5,68.9,30.11,SE,125,0.0,0.0,72,-99.99,,,0.00,VWS V14.01,2013-09-11 22:34:00,
2013-09-11 18:39:00,78.5,69.3,30.11,SE,125,0.0,0.0,73,-99.99,,,0.00,VWS V14.01,2013-09-11 22:39:00,
2013-09-11 18:44:00,78.4,69.9,30.10,SE,125,0.0,0.0,75,-99.99,,,0.00,VWS V14.01,2013-09-11 22:44:00,
2013-09-11 18:49:00,78.0,69.9,30.10,SE,125,0.0,0.0,76,-99.99,,,0.00,VWS V14.01,2013-09-11 22:49:00,
2013-09-11 18:54:00,77.8,70.1,30.10,SE,125,0.0,0.0,77,-99.99,,,0.00,VWS V14.01,2013-09-11 22:54:00,
2013-09-11 18:59:00,77.6,70.1,30.10,SE,125,0.0,0.0,78,-99.99,,,0.00,VWS V14.01,2013-09-11 22:59:00,
2013-09-11 20:16:00,74.1,70.6,30.11,SE,125,0.0,0.0,89,-99.99,,,0.00,VWS V14.01,2013-09-12 00:16:00,
2013-09-11 20:21:00,74.0,70.7,30.10,SE,125,0.0,0.0,89,-99.99,,,0.00,VWS V14.01,2013-09-12 00:21:00,
2013-09-11 20:26:00,73.8,70.6,30.10,SE,125,0.0,0.0,90,-99.99,,,0.00,VWS V14.01,2013-09-12 00:26:00,
2013-09-11 20:31:00,73.6,70.7,30.10,SE,125,0.0,0.0,90,-99.99,,,0.00,VWS V14.01,2013-09-12 00:31:00,
2013-09-11 20:36:00,73.3,70.5,30.10,SE,125,0.0,0.0,91,-99.99,,,0.00,VWS V14.01,2013-09-12 00:36:00,
2013-09-11 20:41:00,73.1,70.4,30.10,SE,125,0.0,0.0,91,-99.99,,,0.00,VWS V14.01,2013-09-12 00:41:00,
2013-09-11 20:46:00,72.9,70.3,30.10,SE,125,0.0,0.0,92,-99.99,,,0.00,VWS V14.01,2013-09-12 00:46:00,
2013-09-11 20:51:00,72.6,70.2,30.10,SE,125,0.0,0.0,92,-99.99,,,0.00,VWS V14.01,2013-09-12 00:51:00,
2013-09-11 20:55:00,72.4,70.1,30.10,SE,125,0.0,0.0,92,-99.99,,,0.00,VWS V14.01,2013-09-12 00:55:00,
2013-09-11 21:00:00,72.2,69.9,30.09,SE,125,0.0,0.0,92,-99.99,,,0.00,VWS V14.01,2013-09-12 01:00:00,
2013-09-11 21:05:00,72.0,69.8,30.10,SE,125,0.0,0.0,93,-99.99,,,0.00,VWS V14.01,2013-09-12 01:05:00,
2013-09-11 21:10:00,71.8,69.7,30.10,SE,125,0.0,0.0,93,-99.99,,,0.00,VWS V14.01,2013-09-12 01:10:00,
2013-09-11 21:15:00,71.7,69.7,30.10,SE,125,0.0,0.0,94,-99.99,,,0.00,VWS V14.01,2013-09-12 01:15:00,
2013-09-11 21:20:00,71.5,69.6,30.10,SE,125,0.0,0.0,94,-99.99,,,0.00,VWS V14.01,2013-09-12 01:20:00,
2013-09-11 21:25:00,71.4,69.6,30.10,SE,125,0.0,0.0,94,-99.99,,,0.00,VWS V14.01,2013-09-12 01:25:00,
2013-09-11 21:30:00,71.2,69.5,30.10,SE,125,0.0,0.0,94,-99.99,,,0.00,VWS V14.01,2013-09-12 01:30:00,
2013-09-11 21:35:00,71.1,69.5,30.10,SE,125,0.0,0.0,95,-99.99,,,0.00,VWS V14.01,2013-09-12 01:35:00,
2013-09-11 21:40:00,71.1,69.6,30.10,SE,125,0.0,0.0,95,-99.99,,,0.00,VWS V14.01,2013-09-12 01:40:00,
2013-09-11 21:45:00,71.0,69.6,30.10,SE,125,0.0,0.0,95,-99.99,,,0.00,VWS V14.01,2013-09-12 01:45:00,
2013-09-11 21:50:00,71.0,69.6,30.10,SE,125,0.0,0.0,95,-99.99,,,0.00,VWS V14.01,2013-09-12 01:50:00,
2013-09-11 21:55:00,70.9,69.6,30.10,SE,125,0.0,0.0,96,-99.99,,,0.00,VWS V14.01,2013-09-12 01:55:00,
2013-09-11 22:00:00,70.9,69.7,30.10,SE,125,0.0,0.0,96,-99.99,,,0.00,VWS V14.01,2013-09-12 02:00:00,
2013-09-11 22:05:00,70.8,69.7,30.11,SE,125,0.0,0.0,96,-99.99,,,0.00,VWS V14.01,2013-09-12 02:05:00,
2013-09-11 22:10:00,70.7,69.6,30.11,SE,125,0.0,0.0,96,-99.99,,,0.00,VWS V14.01,2013-09-12 02:10:00,